createdAt,value
2022-11-24T00:01:30.876Z,8.05
2022-11-24T00:04:01.577Z,8.06
2022-11-24T00:06:31.236Z,8.15
2022-11-24T00:09:00.354Z,8.17
2022-11-24T00:11:33.046Z,8.17
2022-11-24T00:14:01.927Z,8.16
2022-11-24T00:16:32.063Z,8.12
2022-11-24T00:19:02.508Z,8.14
2022-11-24T00:21:32.933Z,8.17
2022-11-24T00:24:05.116Z,8.09
2022-11-24T00:26:38.384Z,8.09
2022-11-24T00:29:08.288Z,8.08
2022-11-24T00:31:38.131Z,7.96
2022-11-24T00:34:07.906Z,7.96
2022-11-24T00:36:37.168Z,7.80
2022-11-24T00:39:07.063Z,7.85
2022-11-24T00:41:37.181Z,7.77
2022-11-24T00:44:07.458Z,7.74
2022-11-24T00:46:37.585Z,7.74
2022-11-24T00:49:08.791Z,7.75
2022-11-24T00:51:37.199Z,7.80
2022-11-24T00:54:06.607Z,7.73
2022-11-24T00:56:36.340Z,7.77
2022-11-24T00:59:05.246Z,7.82
2022-11-24T01:01:34.164Z,7.83
2022-11-24T01:04:03.712Z,7.86
2022-11-24T01:06:33.317Z,7.90
2022-11-24T01:09:02.234Z,7.90
2022-11-24T01:11:53.578Z,7.92
2022-11-24T01:14:25.997Z,7.89
2022-11-24T01:16:55.395Z,7.87
2022-11-24T01:19:24.466Z,7.91
2022-11-24T01:21:52.552Z,7.94
2022-11-24T01:24:21.362Z,7.99
2022-11-24T01:26:50.570Z,7.93
2022-11-24T01:29:19.505Z,7.92
2022-11-24T01:31:53.246Z,7.91
2022-11-24T01:34:21.626Z,7.93
2022-11-24T01:36:49.879Z,7.89
2022-11-24T01:39:18.434Z,7.87
2022-11-24T01:41:46.871Z,7.89
2022-11-24T01:44:23.131Z,7.86
2022-11-24T01:46:56.414Z,7.79
2022-11-24T01:49:29.149Z,7.84
2022-11-24T01:52:01.451Z,7.84
2022-11-24T01:54:33.671Z,7.83
2022-11-24T01:57:09.409Z,7.85
2022-11-24T01:59:38.221Z,7.80
2022-11-24T02:02:08.717Z,7.67
2022-11-24T02:04:38.273Z,7.71
2022-11-24T02:07:09.099Z,7.59
2022-11-24T02:09:44.932Z,7.64
2022-11-24T02:12:13.209Z,7.61
2022-11-24T02:14:44.080Z,7.61
2022-11-24T02:17:13.743Z,7.50
2022-11-24T02:19:53.914Z,7.62
2022-11-24T02:22:29.460Z,7.53
2022-11-24T02:25:04.588Z,7.34
2022-11-24T02:27:34.297Z,7.31
2022-11-24T02:30:02.505Z,7.45
2022-11-24T02:32:33.512Z,7.41
2022-11-24T02:35:02.912Z,7.38
2022-11-24T02:37:31.589Z,7.45
2022-11-24T02:39:59.708Z,7.47
2022-11-24T02:42:30.005Z,7.30
2022-11-24T02:45:01.616Z,7.46
2022-11-24T02:47:29.781Z,7.46
2022-11-24T02:49:57.848Z,7.42
2022-11-24T02:52:26.164Z,7.48
2022-11-24T02:54:54.772Z,7.49
2022-11-24T02:57:23.970Z,7.54
2022-11-24T02:59:51.986Z,7.64
2022-11-24T03:02:21.443Z,7.74
2022-11-24T03:04:49.616Z,7.77
2022-11-24T03:07:18.271Z,7.80
2022-11-24T03:09:49.002Z,7.76
2022-11-24T03:12:17.145Z,7.82
2022-11-24T03:14:45.163Z,7.66
2022-11-24T03:17:13.456Z,7.79
2022-11-24T03:19:42.912Z,7.92
2022-11-24T03:22:10.952Z,7.80
2022-11-24T03:24:38.962Z,7.88
2022-11-24T03:27:07.104Z,7.81
2022-11-24T03:29:35.200Z,7.80
2022-11-24T03:32:03.188Z,7.99
2022-11-24T03:34:31.488Z,7.97
2022-11-24T03:37:01.114Z,7.97
2022-11-24T03:39:29.108Z,7.96
2022-11-24T03:41:57.146Z,7.91
2022-11-24T03:44:25.220Z,7.93
2022-11-24T03:46:53.307Z,8.01
2022-11-24T03:49:21.350Z,8.07
2022-11-24T03:51:49.392Z,8.13
2022-11-24T03:54:18.859Z,8.07
2022-11-24T03:56:47.584Z,8.10
2022-11-24T03:59:15.597Z,8.05
2022-11-24T04:01:43.672Z,8.09
2022-11-24T04:04:12.046Z,8.13
2022-11-24T04:06:40.262Z,8.15
2022-11-24T04:09:09.092Z,8.20
2022-11-24T04:11:56.179Z,8.19
2022-11-24T04:14:24.391Z,8.17
2022-11-24T04:16:52.411Z,8.22
2022-11-24T04:19:20.729Z,8.22
2022-11-24T04:21:48.845Z,8.23
2022-11-24T04:24:16.948Z,8.29
2022-11-24T04:26:46.526Z,8.19
2022-11-24T04:29:14.918Z,8.15
2022-11-24T04:31:42.991Z,8.22
2022-11-24T04:34:12.330Z,8.12
2022-11-24T04:36:42.796Z,8.17
2022-11-24T04:39:25.934Z,8.17
2022-11-24T04:41:57.755Z,8.17
2022-11-24T04:44:25.806Z,8.05
2022-11-24T04:46:53.880Z,8.21
2022-11-24T04:49:22.009Z,8.26
2022-11-24T04:51:50.182Z,8.23
2022-11-24T04:54:18.243Z,8.17
2022-11-24T04:56:46.365Z,8.11
2022-11-24T04:59:16.597Z,8.32
2022-11-24T05:01:45.534Z,8.32
2022-11-24T05:04:15.197Z,8.30
2022-11-24T05:06:43.238Z,8.14
2022-11-24T05:09:15.958Z,7.95
2022-11-24T05:11:44.507Z,7.94
2022-11-24T05:14:12.599Z,7.94
2022-11-24T05:16:42.058Z,7.97
2022-11-24T05:19:10.107Z,7.92
2022-11-24T05:21:38.186Z,7.98
2022-11-24T05:24:06.543Z,7.89
2022-11-24T05:26:35.606Z,7.87
2022-11-24T05:29:03.596Z,7.85
2022-11-24T05:31:31.658Z,7.91
2022-11-24T05:34:01.114Z,7.93
2022-11-24T05:36:46.388Z,7.95
2022-11-24T05:39:14.549Z,7.95
2022-11-24T05:41:43.327Z,7.93
2022-11-24T05:44:11.463Z,7.92
2022-11-24T05:46:39.541Z,7.93
2022-11-24T05:49:09.091Z,7.97
2022-11-24T05:51:37.084Z,7.93
2022-11-24T05:54:05.357Z,7.92
2022-11-24T05:56:33.377Z,7.91
2022-11-24T05:59:05.333Z,7.93
2022-11-24T06:01:36.464Z,8.00
2022-11-24T06:04:04.641Z,8.00
2022-11-24T06:06:34.100Z,8.09
2022-11-24T06:09:02.212Z,7.98
2022-11-24T06:11:30.253Z,7.87
2022-11-24T06:13:58.494Z,8.00
2022-11-24T06:16:26.902Z,7.92
2022-11-24T06:18:54.963Z,7.98
2022-11-24T06:21:22.948Z,8.12
2022-11-24T06:23:52.390Z,8.13
2022-11-24T06:26:20.403Z,8.30
2022-11-24T06:28:48.461Z,8.28
2022-11-24T06:31:16.628Z,8.36
2022-11-24T06:33:44.810Z,8.36
2022-11-24T06:36:15.517Z,8.35
2022-11-24T06:38:44.558Z,8.32
2022-11-24T06:41:16.477Z,8.36
2022-11-24T06:43:44.764Z,8.36
2022-11-24T06:46:13.589Z,8.28
2022-11-24T06:48:41.652Z,8.17
2022-11-24T06:51:13.067Z,8.14
2022-11-24T06:53:42.486Z,7.94
2022-11-24T06:56:16.265Z,7.92
2022-11-24T06:58:47.795Z,7.85
2022-11-24T07:01:17.042Z,7.82
2022-11-24T07:03:45.446Z,7.76
2022-11-24T07:06:13.621Z,7.76
2022-11-24T07:08:41.872Z,7.71
2022-11-24T07:11:13.462Z,7.65
2022-11-24T07:13:41.540Z,7.67
2022-11-24T07:16:16.075Z,7.80
2022-11-24T07:18:44.683Z,7.72
2022-11-24T07:21:13.400Z,7.61
2022-11-24T07:23:41.675Z,7.60
2022-11-24T07:26:11.170Z,7.62
2022-11-24T07:28:39.348Z,7.56
2022-11-24T07:31:08.672Z,7.49
2022-11-24T07:33:38.431Z,7.57
2022-11-24T07:36:08.676Z,7.66
2022-11-24T07:38:37.292Z,7.62
2022-11-24T07:41:07.315Z,7.59
2022-11-24T07:43:37.311Z,7.62
2022-11-24T07:46:06.553Z,7.61
2022-11-24T07:48:35.215Z,7.58
2022-11-24T07:51:05.536Z,7.56
2022-11-24T07:53:37.898Z,7.53
2022-11-24T07:56:07.463Z,7.50
2022-11-24T07:58:37.084Z,7.41
2022-11-24T08:01:12.925Z,7.39
2022-11-24T08:03:45.299Z,7.43
2022-11-24T08:06:24.452Z,7.46
2022-11-24T08:08:54.883Z,7.42
2022-11-24T08:11:23.330Z,7.39
2022-11-24T08:13:51.333Z,7.39
2022-11-24T08:16:21.054Z,7.45
2022-11-24T08:18:52.194Z,7.46
2022-11-24T08:21:23.410Z,7.62
2022-11-24T08:23:54.824Z,7.62
2022-11-24T08:26:23.111Z,7.83
2022-11-24T08:28:54.968Z,7.82
2022-11-24T08:31:22.991Z,7.87
2022-11-24T08:33:51.346Z,7.78
2022-11-24T08:36:22.032Z,7.83
2022-11-24T08:38:50.288Z,7.84
2022-11-24T08:41:18.740Z,7.87
2022-11-24T08:43:47.163Z,7.94
2022-11-24T08:46:17.820Z,8.03
2022-11-24T08:48:48.683Z,8.03
2022-11-24T08:51:19.459Z,8.14
2022-11-24T08:53:49.289Z,8.11
2022-11-24T08:56:17.482Z,8.04
2022-11-24T08:58:45.734Z,8.01
2022-11-24T09:01:16.076Z,8.01
2022-11-24T09:03:50.341Z,8.00
2022-11-24T09:06:20.165Z,7.99
2022-11-24T09:08:49.898Z,7.97
2022-11-24T09:11:18.445Z,7.99
2022-11-24T09:13:46.904Z,7.99
2022-11-24T09:16:17.691Z,7.92
2022-11-24T09:18:46.583Z,7.95
2022-11-24T09:21:16.232Z,8.03
2022-11-24T09:23:45.328Z,8.02
2022-11-24T09:26:17.532Z,7.98
2022-11-24T09:28:45.896Z,7.99
2022-11-24T09:31:16.056Z,8.15
2022-11-24T09:33:45.174Z,8.18
2022-11-24T09:36:13.632Z,8.18
2022-11-24T09:38:42.329Z,8.31
2022-11-24T09:41:28.611Z,8.35
2022-11-24T09:44:03.558Z,8.45
2022-11-24T09:46:39.050Z,8.52
2022-11-24T09:49:12.851Z,8.56
2022-11-24T09:51:44.110Z,8.62
2022-11-24T09:54:17.833Z,8.74
2022-11-24T09:56:48.477Z,8.74
2022-11-24T09:59:19.317Z,8.88
2022-11-24T10:01:48.737Z,9.01
2022-11-24T10:04:20.945Z,9.08
2022-11-24T10:06:57.975Z,9.01
2022-11-24T10:09:55.964Z,9.01
2022-11-24T10:12:42.347Z,9.09
2022-11-24T10:15:31.538Z,9.08
2022-11-24T10:18:17.192Z,9.08
2022-11-24T10:20:53.745Z,9.14
2022-11-24T10:23:39.926Z,9.13
2022-11-24T10:26:13.736Z,9.24
2022-11-24T10:28:49.649Z,9.32
2022-11-24T10:31:25.053Z,9.44
2022-11-24T10:33:53.170Z,9.41
2022-11-24T10:36:30.837Z,9.41
2022-11-24T10:39:06.357Z,9.31
2022-11-24T10:41:44.024Z,9.37
2022-11-24T10:44:15.680Z,9.34
2022-11-24T10:46:43.851Z,9.26
2022-11-24T10:49:20.080Z,9.34
2022-11-24T10:52:14.568Z,9.32
2022-11-24T10:54:55.091Z,9.38
2022-11-24T10:57:30.082Z,9.44
2022-11-24T11:00:01.860Z,9.47
2022-11-24T11:02:37.435Z,9.50
2022-11-24T11:05:28.159Z,9.49
2022-11-24T11:08:16.427Z,9.52
2022-11-24T11:10:45.780Z,9.56
2022-11-24T11:13:29.456Z,9.68
2022-11-24T11:16:00.447Z,9.68
2022-11-24T11:18:33.892Z,9.68
2022-11-24T11:21:04.114Z,9.66
2022-11-24T11:23:36.522Z,9.60
2022-11-24T11:26:32.179Z,9.77
2022-11-24T11:34:55.701Z,9.78
2022-11-24T11:37:27.295Z,9.90
2022-11-24T11:39:56.496Z,9.98
2022-11-24T11:43:01.205Z,9.93
2022-11-24T11:45:33.611Z,9.97
2022-11-24T11:48:22.363Z,9.88
2022-11-24T11:53:47.308Z,10.07
2022-11-24T11:56:28.436Z,10.12
2022-11-24T11:59:28.723Z,10.14
2022-11-24T12:02:11.706Z,10.14
2022-11-24T12:04:51.422Z,10.23
2022-11-24T12:07:46.767Z,10.24
2022-11-24T12:10:25.781Z,10.32
2022-11-24T12:13:31.186Z,10.37
2022-11-24T12:16:07.217Z,10.48
2022-11-24T12:18:57.766Z,10.24
2022-11-24T12:21:35.478Z,10.09
2022-11-24T12:24:13.012Z,10.16
2022-11-24T12:26:46.423Z,10.12
2022-11-24T12:29:37.066Z,10.25
2022-11-24T12:32:19.706Z,10.40
2022-11-24T12:34:56.628Z,10.48
2022-11-24T12:37:41.545Z,10.56
2022-11-24T12:40:17.115Z,10.52
2022-11-24T12:42:53.630Z,10.76
2022-11-24T12:45:29.788Z,10.71
2022-11-24T12:48:15.460Z,10.43
2022-11-24T12:50:45.461Z,10.24
2022-11-24T12:53:18.351Z,10.32
2022-11-24T12:55:47.421Z,10.61
2022-11-24T12:58:21.731Z,10.74
2022-11-24T13:01:16.243Z,10.70
2022-11-24T13:03:58.455Z,10.60
2022-11-24T13:06:36.474Z,10.91
2022-11-24T13:09:11.447Z,11.07
2022-11-24T13:11:42.860Z,11.03
2022-11-24T13:14:20.251Z,11.05
2022-11-24T13:17:21.566Z,11.13
2022-11-24T13:19:42.245Z,11.19
2022-11-24T13:22:19.942Z,11.25
2022-11-24T13:25:13.452Z,11.39
2022-11-24T13:27:44.470Z,11.35
2022-11-24T13:30:54.506Z,11.33
2022-11-24T13:33:37.237Z,11.28
2022-11-24T13:36:34.030Z,11.26
2022-11-24T13:39:03.993Z,11.39
2022-11-24T13:42:41.714Z,11.45
2022-11-24T13:45:12.030Z,11.47
2022-11-24T13:47:43.075Z,11.19
2022-11-24T13:50:48.903Z,11.16
2022-11-24T13:53:24.933Z,11.03
2022-11-24T13:55:58.593Z,10.82
2022-11-24T13:58:34.742Z,10.66
2022-11-24T14:01:14.489Z,10.66
2022-11-24T14:04:13.984Z,10.79
2022-11-24T14:06:41.624Z,10.74
2022-11-24T14:09:22.892Z,10.76
2022-11-24T14:12:06.740Z,10.88
2022-11-24T14:14:35.377Z,10.95
2022-11-24T14:17:19.633Z,11.19
2022-11-24T14:19:48.936Z,11.26
2022-11-24T14:22:20.076Z,11.18
2022-11-24T14:24:55.013Z,11.18
2022-11-24T14:27:32.993Z,11.01
2022-11-24T14:30:05.290Z,11.00
2022-11-24T14:32:35.415Z,11.03
2022-11-24T14:35:03.659Z,11.03
2022-11-24T14:37:33.099Z,10.89
2022-11-24T14:40:04.020Z,10.63
2022-11-24T14:42:33.369Z,10.79
2022-11-24T14:45:04.067Z,10.81
2022-11-24T14:47:36.357Z,10.40
2022-11-24T14:50:14.009Z,10.33
2022-11-24T14:52:47.964Z,10.00
2022-11-24T14:55:31.167Z,9.94
2022-11-24T14:58:01.668Z,10.20
2022-11-24T15:00:35.471Z,10.04
2022-11-24T15:03:21.746Z,10.14
2022-11-24T15:06:02.433Z,10.05
2022-11-24T15:08:38.628Z,9.97
2022-11-24T15:11:09.182Z,9.55
2022-11-24T15:13:39.760Z,9.44
2022-11-24T15:16:17.129Z,9.37
2022-11-24T15:18:55.707Z,9.70
2022-11-24T15:21:49.384Z,9.75
2022-11-24T15:24:22.301Z,9.20
2022-11-24T15:27:01.710Z,9.14
2022-11-24T15:29:33.482Z,8.92
2022-11-24T15:32:02.504Z,8.74
2022-11-24T15:34:32.247Z,8.84
2022-11-24T15:37:00.541Z,8.52
2022-11-24T15:39:28.739Z,8.72
2022-11-24T15:41:56.816Z,8.76
2022-11-24T15:44:24.828Z,8.75
2022-11-24T15:46:53.230Z,8.62
2022-11-24T15:49:21.400Z,8.38
2022-11-24T15:51:50.930Z,8.37
2022-11-24T15:54:20.666Z,8.37
2022-11-24T15:56:48.725Z,8.25
2022-11-24T15:59:20.597Z,8.31
2022-11-24T16:01:50.000Z,8.35
2022-11-24T16:04:18.597Z,8.16
2022-11-24T16:06:46.609Z,8.09
2022-11-24T16:09:17.715Z,8.08
2022-11-24T16:11:45.787Z,7.89
2022-11-24T16:14:13.996Z,7.73
2022-11-24T16:16:42.052Z,7.48
2022-11-24T16:19:10.458Z,7.26
2022-11-24T16:21:38.536Z,7.35
2022-11-24T16:24:07.049Z,7.55
2022-11-24T16:26:36.446Z,7.63
2022-11-24T16:29:04.452Z,7.54
2022-11-24T16:31:32.622Z,7.51
2022-11-24T16:34:00.953Z,7.33
2022-11-24T16:36:29.292Z,7.03
2022-11-24T16:38:57.449Z,6.73
2022-11-24T16:41:25.608Z,6.51
2022-11-24T16:43:55.211Z,6.52
2022-11-24T16:46:25.128Z,6.67
2022-11-24T16:48:55.205Z,6.71
2022-11-24T16:51:25.582Z,6.57
2022-11-24T16:53:59.755Z,6.50
2022-11-24T16:56:28.619Z,6.71
2022-11-24T16:58:58.351Z,6.92
2022-11-24T17:01:27.249Z,7.12
2022-11-24T17:03:55.298Z,7.04
2022-11-24T17:06:23.666Z,6.99
2022-11-24T17:08:51.931Z,6.79
2022-11-24T17:11:21.643Z,6.61
2022-11-24T17:13:50.370Z,6.50
2022-11-24T17:16:21.477Z,6.53
2022-11-24T17:18:50.505Z,6.46
2022-11-24T17:21:21.662Z,6.60
2022-11-24T17:23:55.829Z,6.40
2022-11-24T17:26:25.667Z,6.31
2022-11-24T17:28:56.090Z,6.12
2022-11-24T17:31:26.603Z,6.17
2022-11-24T17:33:56.715Z,6.19
2022-11-24T17:36:25.245Z,6.33
2022-11-24T17:38:53.497Z,5.85
2022-11-24T17:41:22.371Z,5.70
2022-11-24T17:43:55.908Z,5.71
2022-11-24T17:46:26.019Z,6.03
2022-11-24T17:48:55.421Z,5.90
2022-11-24T17:51:24.957Z,5.82
2022-11-24T17:53:54.948Z,5.93
2022-11-24T17:56:30.816Z,6.02
2022-11-24T17:59:00.519Z,5.95
2022-11-24T18:01:31.597Z,5.66
2022-11-24T18:03:59.978Z,5.59
2022-11-24T18:06:28.929Z,5.44
2022-11-24T18:08:58.714Z,5.83
2022-11-24T18:11:31.521Z,5.56
2022-11-24T18:14:02.694Z,5.53
2022-11-24T18:16:33.465Z,5.39
2022-11-24T18:19:10.870Z,5.39
2022-11-24T18:21:39.297Z,5.11
2022-11-24T18:24:07.942Z,5.50
2022-11-24T18:26:35.948Z,5.60
2022-11-24T18:29:04.222Z,5.54
2022-11-24T18:31:35.610Z,5.58
2022-11-24T18:34:05.689Z,5.56
2022-11-24T18:36:34.628Z,5.56
2022-11-24T18:39:03.407Z,5.60
2022-11-24T18:41:31.928Z,5.69
2022-11-24T18:44:02.495Z,5.64
2022-11-24T18:46:30.690Z,5.50
2022-11-24T18:49:00.524Z,5.72
2022-11-24T18:51:30.119Z,5.49
2022-11-24T18:53:59.162Z,5.55
2022-11-24T18:56:27.490Z,5.82
2022-11-24T18:58:56.816Z,5.81
2022-11-24T19:01:26.340Z,5.84
2022-11-24T19:03:56.751Z,5.76
2022-11-24T19:06:29.057Z,5.83
2022-11-24T19:08:57.579Z,5.83
2022-11-24T19:11:28.218Z,5.62
2022-11-24T19:13:56.900Z,5.50
2022-11-24T19:16:25.767Z,5.51
2022-11-24T19:18:57.374Z,5.56
2022-11-24T19:21:27.333Z,5.45
2022-11-24T19:23:59.794Z,5.40
2022-11-24T19:26:31.348Z,5.20
2022-11-24T19:28:59.613Z,4.88
2022-11-24T19:31:28.094Z,4.76
2022-11-24T19:33:58.514Z,4.91
2022-11-24T19:36:28.345Z,5.19
2022-11-24T19:38:58.019Z,4.54
2022-11-24T19:41:28.122Z,4.76
2022-11-24T19:44:33.302Z,4.79
2022-11-24T19:47:01.727Z,4.35
2022-11-24T19:49:29.788Z,5.03
2022-11-24T19:51:59.483Z,4.59
2022-11-24T19:54:27.725Z,4.67
2022-11-24T19:57:39.593Z,5.09
2022-11-24T20:00:09.641Z,5.22
2022-11-24T20:02:37.708Z,5.12
2022-11-24T20:05:06.328Z,5.07
2022-11-24T20:07:36.042Z,4.90
2022-11-24T20:10:07.737Z,4.79
2022-11-24T20:12:36.410Z,4.88
2022-11-24T20:15:04.808Z,4.96
2022-11-24T20:17:33.048Z,4.93
2022-11-24T20:20:22.501Z,4.73
2022-11-24T20:22:51.930Z,4.82
2022-11-24T20:25:19.962Z,5.05
2022-11-24T20:27:47.988Z,4.83
2022-11-24T20:30:19.295Z,4.89
2022-11-24T20:32:53.750Z,4.87
2022-11-24T20:35:31.523Z,4.83
2022-11-24T20:38:16.228Z,4.56
2022-11-24T20:40:55.638Z,4.46
2022-11-24T20:43:32.737Z,4.46
2022-11-24T20:46:11.090Z,4.41
2022-11-24T20:48:50.917Z,4.56
2022-11-24T20:51:23.131Z,4.59
2022-11-24T20:53:57.532Z,4.62
2022-11-24T20:56:29.356Z,4.63
2022-11-24T20:58:59.075Z,4.52
2022-11-24T21:01:52.026Z,4.44
2022-11-24T21:04:24.093Z,3.96
2022-11-24T21:06:53.663Z,4.08
2022-11-24T21:09:23.327Z,3.96
2022-11-24T21:11:52.888Z,3.82
2022-11-24T21:14:21.065Z,3.85
2022-11-24T21:16:49.794Z,4.13
2022-11-24T21:19:19.131Z,4.10
2022-11-24T21:21:49.157Z,4.14
2022-11-24T21:24:19.064Z,4.24
2022-11-24T21:26:49.206Z,4.39
2022-11-24T21:29:20.349Z,4.46
2022-11-24T21:31:49.721Z,4.52
2022-11-24T21:34:19.704Z,4.51
2022-11-24T21:36:48.129Z,4.29
2022-11-24T21:39:17.243Z,4.42
2022-11-24T21:41:45.610Z,4.48
2022-11-24T21:44:15.824Z,4.53
2022-11-24T21:46:49.585Z,4.45
2022-11-24T21:49:22.502Z,4.41
2022-11-24T21:51:55.361Z,4.26
2022-11-24T21:54:23.915Z,3.92
2022-11-24T21:56:51.916Z,4.06
2022-11-24T21:59:22.930Z,3.85
2022-11-24T22:01:51.425Z,3.59
2022-11-24T22:04:19.885Z,3.48
2022-11-24T22:06:48.610Z,3.43
2022-11-24T22:09:18.410Z,3.54
2022-11-24T22:11:49.263Z,3.34
2022-11-24T22:14:17.720Z,3.62
2022-11-24T22:16:48.444Z,3.74
2022-11-24T22:22:31.038Z,3.38
2022-11-24T22:24:59.054Z,3.44
2022-11-24T22:27:27.991Z,3.31
2022-11-24T22:29:56.120Z,3.43
2022-11-24T22:32:25.624Z,3.42
2022-11-24T22:34:53.912Z,3.38
2022-11-24T22:37:22.405Z,3.31
2022-11-24T22:39:51.125Z,3.50
2022-11-24T22:42:20.620Z,3.65
2022-11-24T22:44:48.693Z,3.64
2022-11-24T22:47:17.221Z,3.58
2022-11-24T22:49:47.046Z,3.71
2022-11-24T22:52:16.017Z,3.55
2022-11-24T22:54:44.695Z,3.63
2022-11-24T22:57:13.498Z,3.51
2022-11-24T22:59:41.540Z,3.53
2022-11-24T23:02:10.328Z,3.48
2022-11-24T23:04:38.727Z,3.65
2022-11-24T23:07:08.513Z,3.70
2022-11-24T23:09:36.575Z,3.52
2022-11-24T23:12:04.805Z,3.47
2022-11-24T23:14:32.975Z,3.51
2022-11-24T23:17:02.458Z,3.47
2022-11-24T23:19:30.744Z,3.56
2022-11-24T23:21:59.374Z,3.55
2022-11-24T23:24:28.868Z,3.63
2022-11-24T23:26:57.456Z,3.69
2022-11-24T23:29:25.626Z,3.61
2022-11-24T23:31:53.719Z,3.42
2022-11-24T23:34:22.055Z,2.99
2022-11-24T23:36:50.687Z,3.36
2022-11-24T23:39:18.662Z,3.62
2022-11-24T23:41:48.611Z,3.68
2022-11-24T23:44:16.793Z,3.55
2022-11-24T23:46:44.768Z,3.65
2022-11-24T23:49:13.303Z,3.63
2022-11-24T23:51:42.328Z,3.69
2022-11-24T23:54:12.519Z,3.64
2022-11-24T23:56:40.553Z,3.50
2022-11-24T23:59:12.961Z,3.65
